createdAt,value
2022-08-07T00:00:33.395Z,21.51
2022-08-07T00:03:01.082Z,21.46
2022-08-07T00:05:30.383Z,21.43
2022-08-07T00:07:59.639Z,21.38
2022-08-07T00:10:30.406Z,21.37
2022-08-07T00:13:03.238Z,21.35
2022-08-07T00:15:51.079Z,21.34
2022-08-07T00:18:24.486Z,21.33
2022-08-07T00:20:54.483Z,21.32
2022-08-07T00:23:21.937Z,21.33
2022-08-07T00:25:58.851Z,21.33
2022-08-07T00:28:31.663Z,21.32
2022-08-07T00:31:12.399Z,21.32
2022-08-07T00:33:47.679Z,21.31
2022-08-07T00:36:16.774Z,21.33
2022-08-07T00:38:44.509Z,21.34
2022-08-07T00:41:14.886Z,21.35
2022-08-07T00:44:00.252Z,21.36
2022-08-07T00:46:33.956Z,21.33
2022-08-07T00:49:03.246Z,21.35
2022-08-07T00:51:58.448Z,21.39
2022-08-07T00:54:19.753Z,21.40
2022-08-07T00:56:49.836Z,21.41
2022-08-07T00:59:17.750Z,21.39
2022-08-07T01:01:50.735Z,21.36
2022-08-07T01:04:25.570Z,21.29
2022-08-07T01:06:58.037Z,21.24
2022-08-07T01:09:51.152Z,21.22
2022-08-07T01:12:30.208Z,21.17
2022-08-07T01:15:01.093Z,21.12
2022-08-07T01:17:34.468Z,21.05
2022-08-07T01:20:10.163Z,20.99
2022-08-07T01:23:07.412Z,20.93
2022-08-07T01:25:53.554Z,20.86
2022-08-07T01:28:23.763Z,20.81
2022-08-07T01:30:54.069Z,20.77
2022-08-07T01:33:22.491Z,20.73
2022-08-07T01:35:53.667Z,20.70
2022-08-07T01:38:25.727Z,20.65
2022-08-07T01:40:57.915Z,20.61
2022-08-07T01:43:26.148Z,20.57
2022-08-07T01:46:04.458Z,20.57
2022-08-07T01:48:32.746Z,20.56
2022-08-07T01:51:24.322Z,20.55
2022-08-07T01:54:12.266Z,20.54
2022-08-07T01:56:52.018Z,20.51
2022-08-07T01:59:30.695Z,20.51
2022-08-07T02:02:06.301Z,20.50
2022-08-07T02:04:56.273Z,20.49
2022-08-07T02:07:36.166Z,20.48
2022-08-07T02:10:25.215Z,20.43
2022-08-07T02:12:56.829Z,20.42
2022-08-07T02:15:29.309Z,20.41
2022-08-07T02:18:00.929Z,20.40
2022-08-07T02:20:31.911Z,20.39
2022-08-07T02:23:04.961Z,20.37
2022-08-07T02:26:31.143Z,20.36
2022-08-07T02:28:31.305Z,20.32
2022-08-07T02:31:16.535Z,20.30
2022-08-07T02:34:03.169Z,20.28
2022-08-07T02:36:33.958Z,20.28
2022-08-07T02:39:16.253Z,20.30
2022-08-07T02:41:54.646Z,20.29
2022-08-07T02:44:27.550Z,20.27
2022-08-07T02:47:05.678Z,20.22
2022-08-07T02:49:58.202Z,20.19
2022-08-07T02:52:32.617Z,20.11
2022-08-07T02:55:27.434Z,20.10
2022-08-07T02:58:03.032Z,20.06
2022-08-07T03:00:36.053Z,20.04
2022-08-07T03:03:13.549Z,20.03
2022-08-07T03:05:53.650Z,20.00
2022-08-07T03:08:26.869Z,19.99
2022-08-07T03:10:58.353Z,19.99
2022-08-07T03:13:27.186Z,19.98
2022-08-07T03:15:58.646Z,19.96
2022-08-07T03:18:36.064Z,19.95
2022-08-07T03:21:08.630Z,19.93
2022-08-07T03:24:18.289Z,19.94
2022-08-07T03:26:33.177Z,19.92
2022-08-07T03:29:06.349Z,19.91
2022-08-07T03:31:42.413Z,19.87
2022-08-07T03:34:18.592Z,19.87
2022-08-07T03:36:53.262Z,19.84
2022-08-07T03:39:46.190Z,19.87
2022-08-07T03:42:14.329Z,19.91
2022-08-07T03:44:47.198Z,20.01
2022-08-07T03:47:25.720Z,20.13
2022-08-07T03:49:57.285Z,20.21
2022-08-07T03:52:28.454Z,20.29
2022-08-07T03:54:59.016Z,20.39
2022-08-07T03:58:32.543Z,20.41
2022-08-07T04:00:29.256Z,20.41
2022-08-07T04:02:59.150Z,20.38
2022-08-07T04:05:39.758Z,20.35
2022-08-07T04:08:11.857Z,20.30
2022-08-07T04:10:42.463Z,20.25
2022-08-07T04:13:15.473Z,20.20
2022-08-07T04:15:45.750Z,20.17
2022-08-07T04:18:58.219Z,20.15
2022-08-07T04:21:07.329Z,20.11
2022-08-07T04:23:43.723Z,20.10
2022-08-07T04:26:23.248Z,20.07
2022-08-07T04:28:55.990Z,20.03
2022-08-07T04:32:02.142Z,20.02
2022-08-07T04:34:16.634Z,20.02
2022-08-07T04:36:45.326Z,20.03
2022-08-07T04:39:17.827Z,20.05
2022-08-07T04:41:50.328Z,20.10
2022-08-07T04:44:19.190Z,20.19
2022-08-07T04:47:07.879Z,20.27
2022-08-07T04:50:04.210Z,20.41
2022-08-07T04:52:51.002Z,20.55
2022-08-07T04:58:13.070Z,20.64
2022-08-07T04:58:48.843Z,20.67
2022-08-07T05:01:21.467Z,20.70
2022-08-07T05:04:17.217Z,20.69
2022-08-07T05:07:09.596Z,20.70
2022-08-07T05:09:59.722Z,20.74
2022-08-07T05:12:38.042Z,20.81
2022-08-07T05:15:23.694Z,20.88
2022-08-07T05:18:00.916Z,20.94
2022-08-07T05:20:39.919Z,21.00
2022-08-07T05:23:16.487Z,21.04
2022-08-07T05:26:10.824Z,21.08
2022-08-07T05:28:40.516Z,21.12
2022-08-07T05:31:12.651Z,21.14
2022-08-07T05:34:01.042Z,21.20
2022-08-07T05:36:35.415Z,21.25
2022-08-07T05:40:05.773Z,21.30
2022-08-07T05:42:02.496Z,21.34
2022-08-07T05:44:35.457Z,21.43
2022-08-07T05:47:38.568Z,21.52
2022-08-07T05:49:53.388Z,21.62
2022-08-07T05:52:32.304Z,21.70
2022-08-07T05:55:07.261Z,21.78
2022-08-07T05:57:41.961Z,21.80
2022-08-07T06:00:15.930Z,21.84
2022-08-07T06:02:49.227Z,21.80
2022-08-07T06:05:19.658Z,21.78
2022-08-07T06:08:14.818Z,21.75
2022-08-07T06:10:43.551Z,21.76
2022-08-07T06:13:13.661Z,21.69
2022-08-07T06:15:44.355Z,21.61
2022-08-07T06:18:13.760Z,21.49
2022-08-07T06:20:50.482Z,21.45
2022-08-07T06:24:38.124Z,21.42
2022-08-07T06:26:21.720Z,21.45
2022-08-07T06:28:59.569Z,21.52
2022-08-07T06:31:47.306Z,21.65
2022-08-07T06:34:16.424Z,21.78
2022-08-07T06:36:48.311Z,21.81
2022-08-07T06:40:16.703Z,21.73
2022-08-07T06:42:17.773Z,21.64
2022-08-07T06:44:51.122Z,21.59
2022-08-07T06:47:19.533Z,21.61
2022-08-07T06:49:50.838Z,21.71
2022-08-07T06:52:31.839Z,21.84
2022-08-07T06:55:34.158Z,21.97
2022-08-07T06:58:02.458Z,22.10
2022-08-07T07:00:38.179Z,22.15
2022-08-07T07:03:08.678Z,22.24
2022-08-07T07:06:03.808Z,22.28
2022-08-07T07:08:29.125Z,22.40
2022-08-07T07:10:59.037Z,22.56
2022-08-07T07:13:56.032Z,22.71
2022-08-07T07:16:30.772Z,22.80
2022-08-07T07:19:54.645Z,22.88
2022-08-07T07:22:05.347Z,23.00
2022-08-07T07:24:42.803Z,23.06
2022-08-07T07:27:15.743Z,23.14
2022-08-07T07:30:07.515Z,23.25
2022-08-07T07:32:40.573Z,23.35
2022-08-07T07:35:13.167Z,23.46
2022-08-07T07:37:59.081Z,23.60
2022-08-07T07:40:32.213Z,23.73
2022-08-07T07:43:15.049Z,23.84
2022-08-07T07:46:36.560Z,23.93
2022-08-07T07:48:39.808Z,24.01
2022-08-07T07:51:08.596Z,24.10
2022-08-07T07:53:51.481Z,24.53
2022-08-07T07:56:29.978Z,25.40
2022-08-07T07:59:02.455Z,26.45
2022-08-07T08:02:03.857Z,27.45
2022-08-07T08:04:25.885Z,28.48
2022-08-07T08:06:56.288Z,29.65
2022-08-07T08:09:29.514Z,30.92
2022-08-07T08:12:04.925Z,32.16
2022-08-07T08:14:36.809Z,33.14
2022-08-07T08:17:56.499Z,33.84
2022-08-07T08:20:18.887Z,34.68
2022-08-07T08:23:14.448Z,35.48
2022-08-07T08:26:07.112Z,36.33
2022-08-07T08:28:44.871Z,37.22
2022-08-07T08:31:30.138Z,37.64
2022-08-07T08:34:26.647Z,38.07
2022-08-07T08:36:58.458Z,38.70
2022-08-07T08:39:39.658Z,39.25
2022-08-07T08:42:26.097Z,39.92
2022-08-07T08:45:13.421Z,40.37
2022-08-07T08:47:56.090Z,40.70
2022-08-07T08:50:39.343Z,40.91
2022-08-07T08:53:22.543Z,40.81
2022-08-07T08:55:58.971Z,40.74
2022-08-07T08:58:41.738Z,40.77
2022-08-07T09:01:18.484Z,41.00
2022-08-07T09:03:59.689Z,41.20
2022-08-07T09:06:48.417Z,41.51
2022-08-07T09:09:56.567Z,41.65
2022-08-07T09:12:53.034Z,42.06
2022-08-07T09:16:24.318Z,42.51
2022-08-07T09:19:51.919Z,42.17
2022-08-07T09:24:29.105Z,42.14
2022-08-07T09:25:17.573Z,42.47
2022-08-07T09:28:01.064Z,42.81
2022-08-07T09:30:52.877Z,43.07
2022-08-07T09:33:56.817Z,43.18
2022-08-07T09:36:37.402Z,43.61
2022-08-07T09:39:53.833Z,43.62
2022-08-07T09:42:37.973Z,43.28
2022-08-07T09:47:25.073Z,43.09
2022-08-07T09:48:20.588Z,42.84
2022-08-07T09:51:25.988Z,43.02
2022-08-07T09:54:03.704Z,43.57
2022-08-07T09:57:12.898Z,44.17
2022-08-07T10:00:09.127Z,44.51
2022-08-07T10:04:06.800Z,44.79
2022-08-07T10:06:55.643Z,43.89
2022-08-07T10:10:01.147Z,41.95
2022-08-07T10:12:57.066Z,41.73
2022-08-07T10:15:52.036Z,42.12
2022-08-07T10:18:44.011Z,42.73
2022-08-07T10:22:12.495Z,43.60
2022-08-07T10:25:04.531Z,44.67
2022-08-07T10:27:53.562Z,45.43
2022-08-07T10:30:36.360Z,45.24
2022-08-07T10:34:05.128Z,45.20
2022-08-07T10:36:41.488Z,45.14
2022-08-07T10:39:41.740Z,44.68
2022-08-07T10:42:38.566Z,43.74
2022-08-07T10:45:43.979Z,42.15
2022-08-07T10:48:34.674Z,40.23
2022-08-07T10:51:16.616Z,38.81
2022-08-07T10:54:11.179Z,37.48
2022-08-07T10:56:57.134Z,36.46
2022-08-07T10:59:50.939Z,35.61
2022-08-07T11:02:34.270Z,35.01
2022-08-07T11:05:35.611Z,34.24
2022-08-07T11:08:30.473Z,33.66
2022-08-07T11:11:06.153Z,33.20
2022-08-07T11:14:45.853Z,32.67
2022-08-07T11:16:41.017Z,32.18
2022-08-07T11:19:27.075Z,31.76
2022-08-07T11:22:18.771Z,31.26
2022-08-07T11:25:07.359Z,30.79
2022-08-07T11:28:01.205Z,30.57
2022-08-07T11:30:45.534Z,30.53
2022-08-07T11:33:59.416Z,30.57
2022-08-07T11:36:38.028Z,30.50
2022-08-07T11:39:20.027Z,30.41
2022-08-07T11:42:03.298Z,30.33
2022-08-07T11:44:52.609Z,30.02
2022-08-07T11:48:30.415Z,29.99
2022-08-07T11:51:22.441Z,30.32
2022-08-07T11:54:34.813Z,30.60
2022-08-07T11:57:19.191Z,30.77
2022-08-07T12:00:10.660Z,30.92
2022-08-07T12:03:42.229Z,31.13
2022-08-07T12:06:40.364Z,31.19
2022-08-07T12:09:34.199Z,31.20
2022-08-07T12:12:09.534Z,31.14
2022-08-07T12:14:52.700Z,31.15
2022-08-07T12:17:35.941Z,31.09
2022-08-07T12:20:20.829Z,31.14
2022-08-07T12:24:07.434Z,31.70
2022-08-07T12:26:47.371Z,32.26
2022-08-07T12:29:37.764Z,32.36
2022-08-07T12:32:18.233Z,32.28
2022-08-07T12:35:03.003Z,32.10
2022-08-07T12:38:10.034Z,31.96
2022-08-07T12:40:49.988Z,32.18
2022-08-07T12:44:02.762Z,32.48
2022-08-07T12:46:32.464Z,32.41
2022-08-07T12:49:25.349Z,32.33
2022-08-07T12:52:14.484Z,32.93
2022-08-07T12:55:02.832Z,33.92
2022-08-07T12:57:39.322Z,34.07
2022-08-07T13:00:49.469Z,33.32
2022-08-07T13:04:02.976Z,32.56
2022-08-07T13:07:09.013Z,32.17
2022-08-07T13:10:45.686Z,31.87
2022-08-07T13:13:51.666Z,31.68
2022-08-07T13:16:32.615Z,31.56
2022-08-07T13:19:35.217Z,31.35
2022-08-07T13:22:19.946Z,31.11
2022-08-07T13:25:02.467Z,30.91
2022-08-07T13:28:13.809Z,30.81
2022-08-07T13:30:41.372Z,30.77
2022-08-07T13:34:29.974Z,30.79
2022-08-07T13:36:19.737Z,30.86
2022-08-07T13:39:01.004Z,30.93
2022-08-07T13:41:41.338Z,31.16
2022-08-07T13:44:12.914Z,31.34
2022-08-07T13:46:49.184Z,31.51
2022-08-07T13:50:32.656Z,31.72
2022-08-07T13:52:25.900Z,31.77
2022-08-07T13:54:58.661Z,31.79
2022-08-07T13:57:37.671Z,31.75
2022-08-07T14:00:26.101Z,31.72
2022-08-07T14:02:59.546Z,31.76
2022-08-07T14:05:37.995Z,31.81
2022-08-07T14:08:09.272Z,31.76
2022-08-07T14:10:41.801Z,31.65
2022-08-07T14:13:16.546Z,31.51
2022-08-07T14:15:56.941Z,31.29
2022-08-07T14:18:33.807Z,31.10
2022-08-07T14:21:21.207Z,30.91
2022-08-07T14:24:05.018Z,30.76
2022-08-07T14:30:09.807Z,30.91
2022-08-07T14:32:28.106Z,31.16
2022-08-07T14:35:01.477Z,31.30
2022-08-07T14:37:36.392Z,31.39
2022-08-07T14:40:26.531Z,31.48
2022-08-07T14:43:55.396Z,31.61
2022-08-07T14:45:54.767Z,31.93
2022-08-07T14:48:27.619Z,31.95
2022-08-07T14:51:00.342Z,31.89
2022-08-07T14:54:08.573Z,31.72
2022-08-07T14:56:29.619Z,31.50
2022-08-07T14:59:04.543Z,31.29
2022-08-07T15:04:40.336Z,30.94
2022-08-07T15:07:24.594Z,30.84
2022-08-07T15:13:16.846Z,30.79
2022-08-07T15:15:52.714Z,30.83
2022-08-07T15:18:34.771Z,30.87
2022-08-07T15:25:15.718Z,30.83
2022-08-07T15:27:07.104Z,30.75
2022-08-07T15:30:09.030Z,30.76
2022-08-07T15:35:19.808Z,30.79
2022-08-07T15:38:29.905Z,30.85
2022-08-07T15:41:23.605Z,30.91
2022-08-07T15:44:04.217Z,30.91
2022-08-07T15:46:52.071Z,30.96
2022-08-07T15:50:03.865Z,30.95
2022-08-07T15:52:23.592Z,31.02
2022-08-07T15:55:03.342Z,31.14
2022-08-07T15:57:47.549Z,31.16
2022-08-07T16:00:32.213Z,31.12
2022-08-07T16:03:22.042Z,31.07
2022-08-07T16:06:05.116Z,31.06
2022-08-07T16:08:41.619Z,31.11
2022-08-07T16:11:27.360Z,31.11
2022-08-07T16:14:12.946Z,31.06
2022-08-07T16:17:01.880Z,30.98
2022-08-07T16:19:59.238Z,30.90
2022-08-07T16:22:54.241Z,30.82
2022-08-07T16:25:54.491Z,30.73
2022-08-07T16:29:18.514Z,30.80
2022-08-07T16:31:51.476Z,30.94
2022-08-07T16:34:42.111Z,31.23
2022-08-07T16:38:09.406Z,31.37
2022-08-07T16:41:25.092Z,31.43
2022-08-07T16:44:57.262Z,31.38
2022-08-07T16:48:04.359Z,31.40
2022-08-07T16:51:20.868Z,31.51
2022-08-07T16:54:01.693Z,31.54
2022-08-07T16:56:50.197Z,31.57
2022-08-07T16:59:46.103Z,31.58
2022-08-07T17:03:04.816Z,31.57
2022-08-07T17:06:19.670Z,31.65
2022-08-07T17:09:10.718Z,31.70
2022-08-07T17:12:05.053Z,31.72
2022-08-07T17:15:03.030Z,31.62
2022-08-07T17:17:52.597Z,31.58
2022-08-07T17:20:32.783Z,31.56
2022-08-07T17:23:17.061Z,31.51
2022-08-07T17:26:02.226Z,31.40
2022-08-07T17:28:41.479Z,31.33
2022-08-07T17:31:24.970Z,31.23
2022-08-07T17:34:33.708Z,31.05
2022-08-07T17:38:06.594Z,30.92
2022-08-07T17:40:10.633Z,30.67
2022-08-07T17:42:59.796Z,30.47
2022-08-07T17:45:35.576Z,30.29
2022-08-07T17:48:12.657Z,30.19
2022-08-07T17:50:57.459Z,30.04
2022-08-07T17:54:01.080Z,29.94
2022-08-07T17:56:30.935Z,29.83
2022-08-07T17:59:09.272Z,29.67
2022-08-07T18:01:50.447Z,29.52
2022-08-07T18:04:40.195Z,29.36
2022-08-07T18:07:34.151Z,29.18
2022-08-07T18:10:29.092Z,29.02
2022-08-07T18:13:17.685Z,28.84
2022-08-07T18:16:12.245Z,28.69
2022-08-07T18:21:04.223Z,28.62
2022-08-07T18:22:00.015Z,28.55
2022-08-07T18:24:42.127Z,28.49
2022-08-07T18:27:24.066Z,28.42
2022-08-07T18:30:32.297Z,28.35
2022-08-07T18:33:55.683Z,28.17
2022-08-07T18:36:44.156Z,28.13
2022-08-07T18:40:08.405Z,28.01
2022-08-07T18:42:57.676Z,27.99
2022-08-07T18:46:22.074Z,27.94
2022-08-07T18:50:06.767Z,27.89
2022-08-07T18:52:34.000Z,27.82
2022-08-07T18:54:51.147Z,27.73
2022-08-07T18:57:43.990Z,27.68
2022-08-07T19:00:50.020Z,27.64
2022-08-07T19:03:37.821Z,27.61
2022-08-07T19:06:16.290Z,27.53
2022-08-07T19:09:09.261Z,27.39
2022-08-07T19:12:20.734Z,27.21
2022-08-07T19:16:02.327Z,27.13
2022-08-07T19:18:19.523Z,27.08
2022-08-07T19:21:47.659Z,27.02
2022-08-07T19:24:30.430Z,26.99
2022-08-07T19:28:30.084Z,26.95
2022-08-07T19:31:00.624Z,26.88
2022-08-07T19:32:59.279Z,26.83
2022-08-07T19:35:33.422Z,26.80
2022-08-07T19:38:15.921Z,26.75
2022-08-07T19:40:51.436Z,26.70
2022-08-07T19:43:49.162Z,26.67
2022-08-07T19:46:17.899Z,26.62
2022-08-07T19:48:55.995Z,26.60
2022-08-07T19:51:53.189Z,26.58
2022-08-07T19:54:33.986Z,26.52
2022-08-07T19:58:01.869Z,26.45
2022-08-07T19:59:59.717Z,26.38
2022-08-07T20:02:36.122Z,26.33
2022-08-07T20:05:12.508Z,26.27
2022-08-07T20:07:46.495Z,26.22
2022-08-07T20:10:35.919Z,26.14
2022-08-07T20:13:22.659Z,26.05
2022-08-07T20:15:57.507Z,26.01
2022-08-07T20:18:33.040Z,25.99
2022-08-07T20:21:21.251Z,25.97
2022-08-07T20:23:57.951Z,25.89
2022-08-07T20:26:38.878Z,25.86
2022-08-07T20:29:48.997Z,25.83
2022-08-07T20:32:11.522Z,25.80
2022-08-07T20:34:57.628Z,25.75
2022-08-07T20:37:33.604Z,25.73
2022-08-07T20:40:31.555Z,25.68
2022-08-07T20:42:57.253Z,25.58
2022-08-07T20:46:24.113Z,25.52
2022-08-07T20:48:29.746Z,25.47
2022-08-07T20:51:02.167Z,25.41
2022-08-07T20:54:02.304Z,25.36
2022-08-07T20:56:26.131Z,25.27
2022-08-07T20:58:58.848Z,25.20
2022-08-07T21:01:36.338Z,25.15
2022-08-07T21:04:22.364Z,25.10
2022-08-07T21:06:58.263Z,25.04
2022-08-07T21:09:52.545Z,25.01
2022-08-07T21:12:31.133Z,24.96
2022-08-07T21:15:05.455Z,24.93
2022-08-07T21:18:03.404Z,24.92
2022-08-07T21:20:29.550Z,24.89
2022-08-07T21:23:08.019Z,24.84
2022-08-07T21:26:01.469Z,24.79
2022-08-07T21:28:48.234Z,24.77
2022-08-07T21:31:49.555Z,24.72
2022-08-07T21:34:32.269Z,24.67
2022-08-07T21:37:13.149Z,24.61
2022-08-07T21:39:56.505Z,24.56
2022-08-07T21:42:48.010Z,24.53
2022-08-07T21:46:10.686Z,24.50
2022-08-07T21:48:33.265Z,24.49
2022-08-07T21:51:20.433Z,24.45
2022-08-07T21:54:01.081Z,24.44
2022-08-07T21:56:48.271Z,24.40
2022-08-07T21:59:36.327Z,24.40
2022-08-07T22:02:31.063Z,24.39
2022-08-07T22:05:03.451Z,24.36
2022-08-07T22:07:58.199Z,24.31
2022-08-07T22:10:33.660Z,24.29
2022-08-07T22:13:09.438Z,24.30
2022-08-07T22:16:42.549Z,24.29
2022-08-07T22:18:41.832Z,24.26
2022-08-07T22:21:19.078Z,24.21
2022-08-07T22:23:57.254Z,24.18
2022-08-07T22:26:42.519Z,24.14
2022-08-07T22:29:33.789Z,24.14
2022-08-07T22:32:20.187Z,24.14
2022-08-07T22:34:54.349Z,24.09
2022-08-07T22:38:04.251Z,24.00
2022-08-07T22:40:40.072Z,23.90
2022-08-07T22:43:11.928Z,23.85
2022-08-07T22:46:40.482Z,23.73
2022-08-07T22:49:28.147Z,23.62
2022-08-07T22:52:51.869Z,23.49
2022-08-07T22:55:38.571Z,23.47
2022-08-07T22:58:43.313Z,23.38
2022-08-07T23:01:42.141Z,23.34
2022-08-07T23:06:07.396Z,23.25
2022-08-07T23:08:24.454Z,23.28
2022-08-07T23:11:15.120Z,23.32
2022-08-07T23:14:15.440Z,23.35
2022-08-07T23:17:12.698Z,23.38
2022-08-07T23:20:21.754Z,23.42
2022-08-07T23:24:06.745Z,23.38
2022-08-07T23:26:57.785Z,23.42
2022-08-07T23:30:37.178Z,23.40
2022-08-07T23:34:33.890Z,23.32
2022-08-07T23:36:22.961Z,23.31
2022-08-07T23:39:09.524Z,23.31
2022-08-07T23:42:21.872Z,23.30
2022-08-07T23:45:33.225Z,23.31
2022-08-07T23:48:40.848Z,23.30
2022-08-07T23:53:00.257Z,23.33
2022-08-07T23:54:19.683Z,23.26
2022-08-07T23:57:18.439Z,23.15
